Airfield :
LOGIN :

Register | Disclaimer

   EN    FR    IT 

 










Legend :    VFR   Marginal VFR   IFR   Intensive IFR   Very Intensive IFR
Visi :
Ceiling :
>= 8 km
>= 3000ft
5 to 8 km
1000 to 3000 ft
1500m to 5 km
500 to 1000 ft
800 to 1500m
200 to 500 ft
< 800m
< 200 ft
Symbols :   Thunderstorms  Fog  Heavy snow  Heavy precipitations  Wind > 20 kt
SIGMETs :     Misc.  Thunderstorms  Icing  Turbulence  Mountain Waves  Volcanic Ashes







- Airport Elevation : 55 ft
- IATA code : DSA
- Download approach charts


EGCN - Robin Hood Doncaster Sheffield

CURRENT METAR :
  • 161750Z 20006KT 140V260 9999 FEW048 27/11 Q1011

EXPIRED METARs :
  • 161720Z 21007KT 120V260 CAVOK 27/10 Q1011
  • 161650Z 23010KT 200V270 CAVOK 27/11 Q1011
  • 161620Z 22005KT 180V320 CAVOK 27/12 Q1011
  • 161550Z 20009KT 170V240 9999 FEW046 27/12 Q1012
  • 161520Z 20009KT 170V240 9999 FEW043 26/12 Q1012

TAF TAF EGCN
Valid from the 16 at 18:00 until the 17 at 18:00 UTC


161700Z 1618/1718 26008KT 9999 SCT035
TEMPO 1618/1701 7000 SHRA
PROB30
TEMPO 1618/1624 3000 +SHRA BKN012CB
No reported NOTAMs for that airfield.
1 SIGMET reported for the London FIR (EGTT) :
 
Embedded thunderstorms
EGTT SIGMET 02 VALID 161740/162000 EGRR
EGTT LONDON FIR EMBD TS FCST WI N5336 W00326 - N5332 W00250 - N5235 W00247 - N5235 W00325 - N5336 W00326 TOP FL270 MOV NE 15KT NC=



MET'MAP, your aeronautical weather chart ! - Copyright ORBIFLY December 2007 - Disclaimer

ORBIFLY MET'MAP TEAM :

Programming & Development : Alexandra Zaïnal
Concept & Development : Baudouin d'Aumeries
Co-Development & Prog : Marc-Olivier Méhu
Technical & hardware support : Manuel Goepfert

Contact : metmap@orbifly.com




SOURCES & CREDITS :

   NOAA